<?xml version="1.0" encoding="UTF-8" standalone="no" ?>
<gpx xmlns="http://www.topografix.com/GPX/1/1" xmlns:xsi="http://www.w3.org/2001/XMLSchema-instance" xsi:schemaLocation="http://www.topografix.com/GPX/1/1 http://www.topografix.com/GPX/1/1/gpx.xsd" version="1.1" creator="VisuGPX - https://www.visugpx.com">
  <metadata>
    <name>Podante 20km</name>
  </metadata>
  <trk>
    <name><![CDATA[Randonnée du 19/04/2023 à 20:09]]></name>
    <trkseg>
      <trkpt lat="47.95053" lon="6.77782">
        <ele>468</ele>
        <time>2023-04-08T13:37:02+02:00</time>
      </trkpt>
      <trkpt lat="47.95105" lon="6.77744">
        <ele>468</ele>
        <time>2023-04-08T13:39:02+02:00</time>
      </trkpt>
      <trkpt lat="47.95143" lon="6.77764">
        <ele>469</ele>
        <time>2023-04-08T13:39:32+02:00</time>
      </trkpt>
      <trkpt lat="47.95251" lon="6.7784">
        <ele>473</ele>
        <time>2023-04-08T13:40:02+02:00</time>
      </trkpt>
      <trkpt lat="47.95272" lon="6.77965">
        <ele>477</ele>
        <time>2023-04-08T13:40:32+02:00</time>
      </trkpt>
      <trkpt lat="47.9526" lon="6.7809">
        <ele>478</ele>
        <time>2023-04-08T13:41:02+02:00</time>
      </trkpt>
      <trkpt lat="47.95259" lon="6.78154">
        <ele>480</ele>
        <time>2023-04-08T13:41:32+02:00</time>
      </trkpt>
      <trkpt lat="47.95238" lon="6.78181">
        <ele>478</ele>
        <time>2023-04-08T13:42:02+02:00</time>
      </trkpt>
      <trkpt lat="47.95196" lon="6.78193">
        <ele>475</ele>
        <time>2023-04-08T13:42:32+02:00</time>
      </trkpt>
      <trkpt lat="47.95199" lon="6.783">
        <ele>474</ele>
        <time>2023-04-08T13:43:02+02:00</time>
      </trkpt>
      <trkpt lat="47.95182" lon="6.78418">
        <ele>477</ele>
        <time>2023-04-08T13:43:32+02:00</time>
      </trkpt>
      <trkpt lat="47.95148" lon="6.78504">
        <ele>477</ele>
        <time>2023-04-08T13:44:02+02:00</time>
      </trkpt>
      <trkpt lat="47.95105" lon="6.78609">
        <ele>477</ele>
        <time>2023-04-08T13:44:32+02:00</time>
      </trkpt>
      <trkpt lat="47.95058" lon="6.78783">
        <ele>479</ele>
        <time>2023-04-08T13:45:02+02:00</time>
      </trkpt>
      <trkpt lat="47.95018" lon="6.78863">
        <ele>479</ele>
        <time>2023-04-08T13:45:32+02:00</time>
      </trkpt>
      <trkpt lat="47.94912" lon="6.78887">
        <ele>475</ele>
        <time>2023-04-08T13:46:02+02:00</time>
      </trkpt>
      <trkpt lat="47.94918" lon="6.79041">
        <ele>476</ele>
        <time>2023-04-08T13:46:32+02:00</time>
      </trkpt>
      <trkpt lat="47.94987" lon="6.79071">
        <ele>479</ele>
        <time>2023-04-08T13:47:02+02:00</time>
      </trkpt>
      <trkpt lat="47.95009" lon="6.79135">
        <ele>482</ele>
        <time>2023-04-08T13:47:32+02:00</time>
      </trkpt>
      <trkpt lat="47.95013" lon="6.79264">
        <ele>482</ele>
        <time>2023-04-08T13:48:02+02:00</time>
      </trkpt>
      <trkpt lat="47.95012" lon="6.79398">
        <ele>484</ele>
        <time>2023-04-08T13:48:32+02:00</time>
      </trkpt>
      <trkpt lat="47.95025" lon="6.79516">
        <ele>488</ele>
        <time>2023-04-08T13:49:02+02:00</time>
      </trkpt>
      <trkpt lat="47.95033" lon="6.79667">
        <ele>487</ele>
        <time>2023-04-08T13:49:32+02:00</time>
      </trkpt>
      <trkpt lat="47.95048" lon="6.79796">
        <ele>488</ele>
        <time>2023-04-08T13:50:02+02:00</time>
      </trkpt>
      <trkpt lat="47.9508" lon="6.79904">
        <ele>490</ele>
        <time>2023-04-08T13:50:32+02:00</time>
      </trkpt>
      <trkpt lat="47.9511" lon="6.79988">
        <ele>493</ele>
        <time>2023-04-08T13:51:02+02:00</time>
      </trkpt>
      <trkpt lat="47.95147" lon="6.80131">
        <ele>497</ele>
        <time>2023-04-08T13:51:32+02:00</time>
      </trkpt>
      <trkpt lat="47.9519" lon="6.80259">
        <ele>504</ele>
        <time>2023-04-08T13:52:02+02:00</time>
      </trkpt>
      <trkpt lat="47.95228" lon="6.80423">
        <ele>502</ele>
        <time>2023-04-08T13:52:32+02:00</time>
      </trkpt>
      <trkpt lat="47.95269" lon="6.80576">
        <ele>500</ele>
        <time>2023-04-08T13:53:02+02:00</time>
      </trkpt>
      <trkpt lat="47.95332" lon="6.80737">
        <ele>502</ele>
        <time>2023-04-08T13:53:32+02:00</time>
      </trkpt>
      <trkpt lat="47.95374" lon="6.80949">
        <ele>502</ele>
        <time>2023-04-08T13:54:02+02:00</time>
      </trkpt>
      <trkpt lat="47.95363" lon="6.81048">
        <ele>495</ele>
        <time>2023-04-08T13:54:32+02:00</time>
      </trkpt>
      <trkpt lat="47.95351" lon="6.81008">
        <ele>500</ele>
        <time>2023-04-08T13:55:02+02:00</time>
      </trkpt>
      <trkpt lat="47.95326" lon="6.80926">
        <ele>514</ele>
        <time>2023-04-08T13:55:32+02:00</time>
      </trkpt>
      <trkpt lat="47.95314" lon="6.80893">
        <ele>517</ele>
        <time>2023-04-08T13:56:02+02:00</time>
      </trkpt>
      <trkpt lat="47.95308" lon="6.80854">
        <ele>519</ele>
        <time>2023-04-08T13:59:32+02:00</time>
      </trkpt>
      <trkpt lat="47.95302" lon="6.80818">
        <ele>515</ele>
        <time>2023-04-08T14:00:02+02:00</time>
      </trkpt>
      <trkpt lat="47.9531" lon="6.8079">
        <ele>511</ele>
        <time>2023-04-08T14:00:32+02:00</time>
      </trkpt>
      <trkpt lat="47.95308" lon="6.80763">
        <ele>508</ele>
        <time>2023-04-08T14:01:02+02:00</time>
      </trkpt>
      <trkpt lat="47.95301" lon="6.80723">
        <ele>505</ele>
        <time>2023-04-08T14:01:32+02:00</time>
      </trkpt>
      <trkpt lat="47.95269" lon="6.80644">
        <ele>502</ele>
        <time>2023-04-08T14:02:02+02:00</time>
      </trkpt>
      <trkpt lat="47.95261" lon="6.80626">
        <ele>501</ele>
        <time>2023-04-08T14:02:32+02:00</time>
      </trkpt>
      <trkpt lat="47.95243" lon="6.80608">
        <ele>501</ele>
        <time>2023-04-08T14:03:02+02:00</time>
      </trkpt>
      <trkpt lat="47.95193" lon="6.80552">
        <ele>505</ele>
        <time>2023-04-08T14:03:32+02:00</time>
      </trkpt>
      <trkpt lat="47.9518" lon="6.80423">
        <ele>502</ele>
        <time>2023-04-08T14:04:02+02:00</time>
      </trkpt>
      <trkpt lat="47.95121" lon="6.80285">
        <ele>500</ele>
        <time>2023-04-08T14:04:32+02:00</time>
      </trkpt>
      <trkpt lat="47.9505" lon="6.80177">
        <ele>497</ele>
        <time>2023-04-08T14:05:02+02:00</time>
      </trkpt>
      <trkpt lat="47.94983" lon="6.80083">
        <ele>494</ele>
        <time>2023-04-08T14:05:32+02:00</time>
      </trkpt>
      <trkpt lat="47.94967" lon="6.80009">
        <ele>500</ele>
        <time>2023-04-08T14:06:02+02:00</time>
      </trkpt>
      <trkpt lat="47.94956" lon="6.79988">
        <ele>501</ele>
        <time>2023-04-08T14:06:32+02:00</time>
      </trkpt>
      <trkpt lat="47.94938" lon="6.79872">
        <ele>507</ele>
        <time>2023-04-08T14:07:02+02:00</time>
      </trkpt>
      <trkpt lat="47.94958" lon="6.79805">
        <ele>504</ele>
        <time>2023-04-08T14:07:32+02:00</time>
      </trkpt>
      <trkpt lat="47.94958" lon="6.79803">
        <ele>504</ele>
        <time>2023-04-08T14:08:02+02:00</time>
      </trkpt>
      <trkpt lat="47.94957" lon="6.79804">
        <ele>504</ele>
        <time>2023-04-08T14:08:32+02:00</time>
      </trkpt>
      <trkpt lat="47.94958" lon="6.79806">
        <ele>504</ele>
        <time>2023-04-08T14:09:02+02:00</time>
      </trkpt>
      <trkpt lat="47.9495" lon="6.79593">
        <ele>484</ele>
        <time>2023-04-08T14:09:32+02:00</time>
      </trkpt>
      <trkpt lat="47.94893" lon="6.79392">
        <ele>481</ele>
        <time>2023-04-08T14:10:02+02:00</time>
      </trkpt>
      <trkpt lat="47.9478" lon="6.79242">
        <ele>476</ele>
        <time>2023-04-08T14:10:32+02:00</time>
      </trkpt>
      <trkpt lat="47.94785" lon="6.79077">
        <ele>472</ele>
        <time>2023-04-08T14:11:02+02:00</time>
      </trkpt>
      <trkpt lat="47.94652" lon="6.79153">
        <ele>472</ele>
        <time>2023-04-08T14:11:32+02:00</time>
      </trkpt>
      <trkpt lat="47.94612" lon="6.79189">
        <ele>476</ele>
        <time>2023-04-08T14:12:02+02:00</time>
      </trkpt>
      <trkpt lat="47.94648" lon="6.79425">
        <ele>479</ele>
        <time>2023-04-08T14:12:32+02:00</time>
      </trkpt>
      <trkpt lat="47.94659" lon="6.79662">
        <ele>480</ele>
        <time>2023-04-08T14:13:02+02:00</time>
      </trkpt>
      <trkpt lat="47.94681" lon="6.79837">
        <ele>479</ele>
        <time>2023-04-08T14:13:32+02:00</time>
      </trkpt>
      <trkpt lat="47.94629" lon="6.79803">
        <ele>483</ele>
        <time>2023-04-08T14:14:02+02:00</time>
      </trkpt>
      <trkpt lat="47.94573" lon="6.79812">
        <ele>491</ele>
        <time>2023-04-08T14:14:32+02:00</time>
      </trkpt>
      <trkpt lat="47.94589" lon="6.79656">
        <ele>493</ele>
        <time>2023-04-08T14:15:02+02:00</time>
      </trkpt>
      <trkpt lat="47.94574" lon="6.79509">
        <ele>492</ele>
        <time>2023-04-08T14:15:32+02:00</time>
      </trkpt>
      <trkpt lat="47.94551" lon="6.7937">
        <ele>490</ele>
        <time>2023-04-08T14:16:02+02:00</time>
      </trkpt>
      <trkpt lat="47.9451" lon="6.79165">
        <ele>483</ele>
        <time>2023-04-08T14:16:32+02:00</time>
      </trkpt>
      <trkpt lat="47.94458" lon="6.78949">
        <ele>484</ele>
        <time>2023-04-08T14:17:02+02:00</time>
      </trkpt>
      <trkpt lat="47.94431" lon="6.78761">
        <ele>485</ele>
        <time>2023-04-08T14:17:32+02:00</time>
      </trkpt>
      <trkpt lat="47.94401" lon="6.78596">
        <ele>491</ele>
        <time>2023-04-08T14:18:02+02:00</time>
      </trkpt>
      <trkpt lat="47.94376" lon="6.78459">
        <ele>491</ele>
        <time>2023-04-08T14:18:32+02:00</time>
      </trkpt>
      <trkpt lat="47.94319" lon="6.78224">
        <ele>491</ele>
        <time>2023-04-08T14:19:02+02:00</time>
      </trkpt>
      <trkpt lat="47.94242" lon="6.78158">
        <ele>501</ele>
        <time>2023-04-08T14:19:32+02:00</time>
      </trkpt>
      <trkpt lat="47.94195" lon="6.78054">
        <ele>505</ele>
        <time>2023-04-08T14:20:02+02:00</time>
      </trkpt>
      <trkpt lat="47.94162" lon="6.77905">
        <ele>509</ele>
        <time>2023-04-08T14:20:32+02:00</time>
      </trkpt>
      <trkpt lat="47.94135" lon="6.77774">
        <ele>513</ele>
        <time>2023-04-08T14:21:02+02:00</time>
      </trkpt>
      <trkpt lat="47.94111" lon="6.77679">
        <ele>516</ele>
        <time>2023-04-08T14:21:32+02:00</time>
      </trkpt>
      <trkpt lat="47.94074" lon="6.77597">
        <ele>516</ele>
        <time>2023-04-08T14:22:02+02:00</time>
      </trkpt>
      <trkpt lat="47.94031" lon="6.77485">
        <ele>518</ele>
        <time>2023-04-08T14:22:32+02:00</time>
      </trkpt>
      <trkpt lat="47.93993" lon="6.77355">
        <ele>523</ele>
        <time>2023-04-08T14:23:02+02:00</time>
      </trkpt>
      <trkpt lat="47.93944" lon="6.77247">
        <ele>535</ele>
        <time>2023-04-08T14:23:32+02:00</time>
      </trkpt>
      <trkpt lat="47.93913" lon="6.77131">
        <ele>543</ele>
        <time>2023-04-08T14:24:02+02:00</time>
      </trkpt>
      <trkpt lat="47.93858" lon="6.77025">
        <ele>546</ele>
        <time>2023-04-08T14:24:32+02:00</time>
      </trkpt>
      <trkpt lat="47.93836" lon="6.76924">
        <ele>551</ele>
        <time>2023-04-08T14:25:02+02:00</time>
      </trkpt>
      <trkpt lat="47.93895" lon="6.76814">
        <ele>554</ele>
        <time>2023-04-08T14:25:32+02:00</time>
      </trkpt>
      <trkpt lat="47.9395" lon="6.76697">
        <ele>557</ele>
        <time>2023-04-08T14:26:02+02:00</time>
      </trkpt>
      <trkpt lat="47.9397" lon="6.7666">
        <ele>561</ele>
        <time>2023-04-08T14:26:32+02:00</time>
      </trkpt>
      <trkpt lat="47.93968" lon="6.76661">
        <ele>561</ele>
        <time>2023-04-08T14:27:02+02:00</time>
      </trkpt>
      <trkpt lat="47.93968" lon="6.7666">
        <ele>561</ele>
        <time>2023-04-08T14:27:32+02:00</time>
      </trkpt>
      <trkpt lat="47.9397" lon="6.76658">
        <ele>561</ele>
        <time>2023-04-08T14:28:02+02:00</time>
      </trkpt>
      <trkpt lat="47.93969" lon="6.76657">
        <ele>561</ele>
        <time>2023-04-08T14:28:32+02:00</time>
      </trkpt>
      <trkpt lat="47.9397" lon="6.76659">
        <ele>561</ele>
        <time>2023-04-08T14:29:02+02:00</time>
      </trkpt>
      <trkpt lat="47.9397" lon="6.7666">
        <ele>561</ele>
        <time>2023-04-08T14:29:32+02:00</time>
      </trkpt>
      <trkpt lat="47.93969" lon="6.7666">
        <ele>561</ele>
        <time>2023-04-08T14:30:02+02:00</time>
      </trkpt>
      <trkpt lat="47.93971" lon="6.7666">
        <ele>561</ele>
        <time>2023-04-08T14:30:32+02:00</time>
      </trkpt>
      <trkpt lat="47.93976" lon="6.76661">
        <ele>560</ele>
        <time>2023-04-08T14:31:02+02:00</time>
      </trkpt>
      <trkpt lat="47.94002" lon="6.76622">
        <ele>563</ele>
        <time>2023-04-08T14:31:32+02:00</time>
      </trkpt>
      <trkpt lat="47.94053" lon="6.76565">
        <ele>570</ele>
        <time>2023-04-08T14:32:02+02:00</time>
      </trkpt>
      <trkpt lat="47.94113" lon="6.76529">
        <ele>577</ele>
        <time>2023-04-08T14:32:32+02:00</time>
      </trkpt>
      <trkpt lat="47.94164" lon="6.76452">
        <ele>593</ele>
        <time>2023-04-08T14:33:02+02:00</time>
      </trkpt>
      <trkpt lat="47.9419" lon="6.76381">
        <ele>604</ele>
        <time>2023-04-08T14:33:32+02:00</time>
      </trkpt>
      <trkpt lat="47.94208" lon="6.76297">
        <ele>612</ele>
        <time>2023-04-08T14:34:02+02:00</time>
      </trkpt>
      <trkpt lat="47.94211" lon="6.76292">
        <ele>612</ele>
        <time>2023-04-08T14:34:32+02:00</time>
      </trkpt>
      <trkpt lat="47.94211" lon="6.76291">
        <ele>612</ele>
        <time>2023-04-08T14:35:02+02:00</time>
      </trkpt>
      <trkpt lat="47.94211" lon="6.76291">
        <ele>612</ele>
        <time>2023-04-08T14:35:32+02:00</time>
      </trkpt>
      <trkpt lat="47.9421" lon="6.76292">
        <ele>612</ele>
        <time>2023-04-08T14:36:02+02:00</time>
      </trkpt>
      <trkpt lat="47.9421" lon="6.76291">
        <ele>612</ele>
        <time>2023-04-08T14:36:32+02:00</time>
      </trkpt>
      <trkpt lat="47.9421" lon="6.76292">
        <ele>612</ele>
        <time>2023-04-08T14:37:02+02:00</time>
      </trkpt>
      <trkpt lat="47.94211" lon="6.76292">
        <ele>612</ele>
        <time>2023-04-08T14:37:32+02:00</time>
      </trkpt>
      <trkpt lat="47.94211" lon="6.76291">
        <ele>612</ele>
        <time>2023-04-08T14:38:02+02:00</time>
      </trkpt>
      <trkpt lat="47.9422" lon="6.76266">
        <ele>613</ele>
        <time>2023-04-08T14:38:32+02:00</time>
      </trkpt>
      <trkpt lat="47.94295" lon="6.76132">
        <ele>602</ele>
        <time>2023-04-08T14:39:02+02:00</time>
      </trkpt>
      <trkpt lat="47.94226" lon="6.75987">
        <ele>602</ele>
        <time>2023-04-08T14:39:32+02:00</time>
      </trkpt>
      <trkpt lat="47.9424" lon="6.75854">
        <ele>602</ele>
        <time>2023-04-08T14:40:02+02:00</time>
      </trkpt>
      <trkpt lat="47.94233" lon="6.75776">
        <ele>609</ele>
        <time>2023-04-08T14:40:32+02:00</time>
      </trkpt>
      <trkpt lat="47.94219" lon="6.75696">
        <ele>615</ele>
        <time>2023-04-08T14:41:02+02:00</time>
      </trkpt>
      <trkpt lat="47.94217" lon="6.75614">
        <ele>621</ele>
        <time>2023-04-08T14:41:32+02:00</time>
      </trkpt>
      <trkpt lat="47.94217" lon="6.75538">
        <ele>627</ele>
        <time>2023-04-08T14:42:02+02:00</time>
      </trkpt>
      <trkpt lat="47.94197" lon="6.75449">
        <ele>635</ele>
        <time>2023-04-08T14:42:32+02:00</time>
      </trkpt>
      <trkpt lat="47.94203" lon="6.75346">
        <ele>626</ele>
        <time>2023-04-08T14:43:02+02:00</time>
      </trkpt>
      <trkpt lat="47.9425" lon="6.75254">
        <ele>624</ele>
        <time>2023-04-08T14:43:32+02:00</time>
      </trkpt>
      <trkpt lat="47.94272" lon="6.75227">
        <ele>624</ele>
        <time>2023-04-08T14:44:02+02:00</time>
      </trkpt>
      <trkpt lat="47.94272" lon="6.75226">
        <ele>624</ele>
        <time>2023-04-08T14:44:32+02:00</time>
      </trkpt>
      <trkpt lat="47.94274" lon="6.75226">
        <ele>624</ele>
        <time>2023-04-08T14:45:02+02:00</time>
      </trkpt>
      <trkpt lat="47.94272" lon="6.75227">
        <ele>624</ele>
        <time>2023-04-08T14:45:32+02:00</time>
      </trkpt>
      <trkpt lat="47.94273" lon="6.75228">
        <ele>624</ele>
        <time>2023-04-08T14:46:02+02:00</time>
      </trkpt>
      <trkpt lat="47.94272" lon="6.75228">
        <ele>624</ele>
        <time>2023-04-08T14:46:32+02:00</time>
      </trkpt>
      <trkpt lat="47.94272" lon="6.75227">
        <ele>624</ele>
        <time>2023-04-08T14:47:02+02:00</time>
      </trkpt>
      <trkpt lat="47.94272" lon="6.75227">
        <ele>624</ele>
        <time>2023-04-08T14:47:32+02:00</time>
      </trkpt>
      <trkpt lat="47.94273" lon="6.75226">
        <ele>624</ele>
        <time>2023-04-08T14:48:02+02:00</time>
      </trkpt>
      <trkpt lat="47.94352" lon="6.7508">
        <ele>604</ele>
        <time>2023-04-08T14:48:32+02:00</time>
      </trkpt>
      <trkpt lat="47.94305" lon="6.74854">
        <ele>604</ele>
        <time>2023-04-08T14:49:02+02:00</time>
      </trkpt>
      <trkpt lat="47.94252" lon="6.74785">
        <ele>613</ele>
        <time>2023-04-08T14:49:32+02:00</time>
      </trkpt>
      <trkpt lat="47.94208" lon="6.74724">
        <ele>616</ele>
        <time>2023-04-08T14:50:02+02:00</time>
      </trkpt>
      <trkpt lat="47.94167" lon="6.74643">
        <ele>622</ele>
        <time>2023-04-08T14:50:32+02:00</time>
      </trkpt>
      <trkpt lat="47.94112" lon="6.7459">
        <ele>627</ele>
        <time>2023-04-08T14:51:02+02:00</time>
      </trkpt>
      <trkpt lat="47.94032" lon="6.74525">
        <ele>631</ele>
        <time>2023-04-08T14:51:32+02:00</time>
      </trkpt>
      <trkpt lat="47.93922" lon="6.74447">
        <ele>638</ele>
        <time>2023-04-08T14:52:02+02:00</time>
      </trkpt>
      <trkpt lat="47.9383" lon="6.74406">
        <ele>640</ele>
        <time>2023-04-08T14:52:32+02:00</time>
      </trkpt>
      <trkpt lat="47.93738" lon="6.74397">
        <ele>646</ele>
        <time>2023-04-08T14:53:02+02:00</time>
      </trkpt>
      <trkpt lat="47.93669" lon="6.74352">
        <ele>651</ele>
        <time>2023-04-08T14:53:32+02:00</time>
      </trkpt>
      <trkpt lat="47.93729" lon="6.7432">
        <ele>653</ele>
        <time>2023-04-08T14:54:02+02:00</time>
      </trkpt>
      <trkpt lat="47.93792" lon="6.74281">
        <ele>658</ele>
        <time>2023-04-08T14:54:32+02:00</time>
      </trkpt>
      <trkpt lat="47.93867" lon="6.74258">
        <ele>660</ele>
        <time>2023-04-08T14:55:02+02:00</time>
      </trkpt>
      <trkpt lat="47.93928" lon="6.74266">
        <ele>662</ele>
        <time>2023-04-08T14:55:32+02:00</time>
      </trkpt>
      <trkpt lat="47.93974" lon="6.74273">
        <ele>664</ele>
        <time>2023-04-08T14:56:02+02:00</time>
      </trkpt>
      <trkpt lat="47.94027" lon="6.74237">
        <ele>680</ele>
        <time>2023-04-08T14:56:32+02:00</time>
      </trkpt>
      <trkpt lat="47.94036" lon="6.74226">
        <ele>682</ele>
        <time>2023-04-08T14:57:02+02:00</time>
      </trkpt>
      <trkpt lat="47.94035" lon="6.74224">
        <ele>682</ele>
        <time>2023-04-08T14:57:32+02:00</time>
      </trkpt>
      <trkpt lat="47.94034" lon="6.74222">
        <ele>683</ele>
        <time>2023-04-08T14:58:02+02:00</time>
      </trkpt>
      <trkpt lat="47.94035" lon="6.74222">
        <ele>683</ele>
        <time>2023-04-08T14:58:32+02:00</time>
      </trkpt>
      <trkpt lat="47.94035" lon="6.74224">
        <ele>682</ele>
        <time>2023-04-08T14:59:02+02:00</time>
      </trkpt>
      <trkpt lat="47.94038" lon="6.74223">
        <ele>682</ele>
        <time>2023-04-08T14:59:32+02:00</time>
      </trkpt>
      <trkpt lat="47.94037" lon="6.74223">
        <ele>682</ele>
        <time>2023-04-08T15:00:02+02:00</time>
      </trkpt>
      <trkpt lat="47.94037" lon="6.74226">
        <ele>682</ele>
        <time>2023-04-08T15:00:32+02:00</time>
      </trkpt>
      <trkpt lat="47.94038" lon="6.74224">
        <ele>682</ele>
        <time>2023-04-08T15:01:02+02:00</time>
      </trkpt>
      <trkpt lat="47.94038" lon="6.74224">
        <ele>682</ele>
        <time>2023-04-08T15:01:32+02:00</time>
      </trkpt>
      <trkpt lat="47.94038" lon="6.74224">
        <ele>682</ele>
        <time>2023-04-08T15:02:02+02:00</time>
      </trkpt>
      <trkpt lat="47.94038" lon="6.74224">
        <ele>682</ele>
        <time>2023-04-08T15:02:32+02:00</time>
      </trkpt>
      <trkpt lat="47.94038" lon="6.74224">
        <ele>682</ele>
        <time>2023-04-08T15:03:02+02:00</time>
      </trkpt>
      <trkpt lat="47.94039" lon="6.74225">
        <ele>681</ele>
        <time>2023-04-08T15:03:32+02:00</time>
      </trkpt>
      <trkpt lat="47.94038" lon="6.74227">
        <ele>681</ele>
        <time>2023-04-08T15:04:02+02:00</time>
      </trkpt>
      <trkpt lat="47.94083" lon="6.74198">
        <ele>679</ele>
        <time>2023-04-08T15:04:32+02:00</time>
      </trkpt>
      <trkpt lat="47.94185" lon="6.74236">
        <ele>677</ele>
        <time>2023-04-08T15:05:02+02:00</time>
      </trkpt>
      <trkpt lat="47.94206" lon="6.74238">
        <ele>679</ele>
        <time>2023-04-08T15:05:32+02:00</time>
      </trkpt>
      <trkpt lat="47.94214" lon="6.74239">
        <ele>680</ele>
        <time>2023-04-08T15:06:02+02:00</time>
      </trkpt>
      <trkpt lat="47.94215" lon="6.74237">
        <ele>681</ele>
        <time>2023-04-08T15:06:32+02:00</time>
      </trkpt>
      <trkpt lat="47.94216" lon="6.74239">
        <ele>680</ele>
        <time>2023-04-08T15:07:02+02:00</time>
      </trkpt>
      <trkpt lat="47.94216" lon="6.7424">
        <ele>680</ele>
        <time>2023-04-08T15:07:32+02:00</time>
      </trkpt>
      <trkpt lat="47.94268" lon="6.7426">
        <ele>679</ele>
        <time>2023-04-08T15:08:02+02:00</time>
      </trkpt>
      <trkpt lat="47.94357" lon="6.74269">
        <ele>681</ele>
        <time>2023-04-08T15:08:32+02:00</time>
      </trkpt>
      <trkpt lat="47.94435" lon="6.74199">
        <ele>687</ele>
        <time>2023-04-08T15:09:02+02:00</time>
      </trkpt>
      <trkpt lat="47.94467" lon="6.74123">
        <ele>695</ele>
        <time>2023-04-08T15:09:32+02:00</time>
      </trkpt>
      <trkpt lat="47.94489" lon="6.74044">
        <ele>691</ele>
        <time>2023-04-08T15:10:02+02:00</time>
      </trkpt>
      <trkpt lat="47.94516" lon="6.73989">
        <ele>690</ele>
        <time>2023-04-08T15:10:32+02:00</time>
      </trkpt>
      <trkpt lat="47.94551" lon="6.73934">
        <ele>693</ele>
        <time>2023-04-08T15:11:02+02:00</time>
      </trkpt>
      <trkpt lat="47.94566" lon="6.73889">
        <ele>700</ele>
        <time>2023-04-08T15:11:32+02:00</time>
      </trkpt>
      <trkpt lat="47.94589" lon="6.73832">
        <ele>710</ele>
        <time>2023-04-08T15:12:02+02:00</time>
      </trkpt>
      <trkpt lat="47.94624" lon="6.73811">
        <ele>708</ele>
        <time>2023-04-08T15:12:32+02:00</time>
      </trkpt>
      <trkpt lat="47.94625" lon="6.73812">
        <ele>708</ele>
        <time>2023-04-08T15:13:02+02:00</time>
      </trkpt>
      <trkpt lat="47.94625" lon="6.73811">
        <ele>708</ele>
        <time>2023-04-08T15:13:32+02:00</time>
      </trkpt>
      <trkpt lat="47.94625" lon="6.7381">
        <ele>708</ele>
        <time>2023-04-08T15:14:02+02:00</time>
      </trkpt>
      <trkpt lat="47.94629" lon="6.73808">
        <ele>707</ele>
        <time>2023-04-08T15:14:32+02:00</time>
      </trkpt>
      <trkpt lat="47.94642" lon="6.73793">
        <ele>710</ele>
        <time>2023-04-08T15:15:02+02:00</time>
      </trkpt>
      <trkpt lat="47.94642" lon="6.73792">
        <ele>711</ele>
        <time>2023-04-08T15:15:32+02:00</time>
      </trkpt>
      <trkpt lat="47.94643" lon="6.7379">
        <ele>711</ele>
        <time>2023-04-08T15:16:02+02:00</time>
      </trkpt>
      <trkpt lat="47.94643" lon="6.7379">
        <ele>711</ele>
        <time>2023-04-08T15:16:32+02:00</time>
      </trkpt>
      <trkpt lat="47.94644" lon="6.7379">
        <ele>711</ele>
        <time>2023-04-08T15:17:02+02:00</time>
      </trkpt>
      <trkpt lat="47.94644" lon="6.7379">
        <ele>711</ele>
        <time>2023-04-08T15:17:32+02:00</time>
      </trkpt>
      <trkpt lat="47.94644" lon="6.7379">
        <ele>711</ele>
        <time>2023-04-08T15:18:02+02:00</time>
      </trkpt>
      <trkpt lat="47.94658" lon="6.73767">
        <ele>715</ele>
        <time>2023-04-08T15:18:32+02:00</time>
      </trkpt>
      <trkpt lat="47.94686" lon="6.73694">
        <ele>722</ele>
        <time>2023-04-08T15:19:02+02:00</time>
      </trkpt>
      <trkpt lat="47.94692" lon="6.73624">
        <ele>730</ele>
        <time>2023-04-08T15:19:32+02:00</time>
      </trkpt>
      <trkpt lat="47.94694" lon="6.73559">
        <ele>738</ele>
        <time>2023-04-08T15:20:02+02:00</time>
      </trkpt>
      <trkpt lat="47.94686" lon="6.73504">
        <ele>745</ele>
        <time>2023-04-08T15:20:32+02:00</time>
      </trkpt>
      <trkpt lat="47.94685" lon="6.73443">
        <ele>746</ele>
        <time>2023-04-08T15:21:02+02:00</time>
      </trkpt>
      <trkpt lat="47.94683" lon="6.73421">
        <ele>745</ele>
        <time>2023-04-08T15:21:32+02:00</time>
      </trkpt>
      <trkpt lat="47.94685" lon="6.73423">
        <ele>744</ele>
        <time>2023-04-08T15:22:02+02:00</time>
      </trkpt>
      <trkpt lat="47.94684" lon="6.73423">
        <ele>745</ele>
        <time>2023-04-08T15:22:32+02:00</time>
      </trkpt>
      <trkpt lat="47.94685" lon="6.73423">
        <ele>744</ele>
        <time>2023-04-08T15:23:02+02:00</time>
      </trkpt>
      <trkpt lat="47.94684" lon="6.73422">
        <ele>745</ele>
        <time>2023-04-08T15:23:32+02:00</time>
      </trkpt>
      <trkpt lat="47.94685" lon="6.73422">
        <ele>745</ele>
        <time>2023-04-08T15:24:02+02:00</time>
      </trkpt>
      <trkpt lat="47.94685" lon="6.73422">
        <ele>745</ele>
        <time>2023-04-08T15:24:32+02:00</time>
      </trkpt>
      <trkpt lat="47.94684" lon="6.73421">
        <ele>745</ele>
        <time>2023-04-08T15:25:02+02:00</time>
      </trkpt>
      <trkpt lat="47.94684" lon="6.73421">
        <ele>745</ele>
        <time>2023-04-08T15:25:32+02:00</time>
      </trkpt>
      <trkpt lat="47.94684" lon="6.73421">
        <ele>745</ele>
        <time>2023-04-08T15:26:02+02:00</time>
      </trkpt>
      <trkpt lat="47.94684" lon="6.7342">
        <ele>745</ele>
        <time>2023-04-08T15:26:32+02:00</time>
      </trkpt>
      <trkpt lat="47.94684" lon="6.7338">
        <ele>742</ele>
        <time>2023-04-08T15:30:32+02:00</time>
      </trkpt>
      <trkpt lat="47.94694" lon="6.73253">
        <ele>728</ele>
        <time>2023-04-08T15:31:02+02:00</time>
      </trkpt>
      <trkpt lat="47.94696" lon="6.73248">
        <ele>727</ele>
        <time>2023-04-08T15:31:32+02:00</time>
      </trkpt>
      <trkpt lat="47.94693" lon="6.73248">
        <ele>728</ele>
        <time>2023-04-08T15:32:02+02:00</time>
      </trkpt>
      <trkpt lat="47.94696" lon="6.73181">
        <ele>719</ele>
        <time>2023-04-08T15:32:32+02:00</time>
      </trkpt>
      <trkpt lat="47.94638" lon="6.72972">
        <ele>694</ele>
        <time>2023-04-08T15:33:02+02:00</time>
      </trkpt>
      <trkpt lat="47.9462" lon="6.72897">
        <ele>697</ele>
        <time>2023-04-08T15:33:32+02:00</time>
      </trkpt>
      <trkpt lat="47.94623" lon="6.72844">
        <ele>700</ele>
        <time>2023-04-08T15:34:02+02:00</time>
      </trkpt>
      <trkpt lat="47.94631" lon="6.72795">
        <ele>702</ele>
        <time>2023-04-08T15:34:32+02:00</time>
      </trkpt>
      <trkpt lat="47.94647" lon="6.72698">
        <ele>707</ele>
        <time>2023-04-08T15:35:02+02:00</time>
      </trkpt>
      <trkpt lat="47.94634" lon="6.72591">
        <ele>711</ele>
        <time>2023-04-08T15:35:32+02:00</time>
      </trkpt>
      <trkpt lat="47.94625" lon="6.72559">
        <ele>719</ele>
        <time>2023-04-08T15:36:02+02:00</time>
      </trkpt>
      <trkpt lat="47.94627" lon="6.72537">
        <ele>720</ele>
        <time>2023-04-08T15:36:32+02:00</time>
      </trkpt>
      <trkpt lat="47.94626" lon="6.72532">
        <ele>720</ele>
        <time>2023-04-08T15:37:02+02:00</time>
      </trkpt>
      <trkpt lat="47.94626" lon="6.72534">
        <ele>720</ele>
        <time>2023-04-08T15:37:32+02:00</time>
      </trkpt>
      <trkpt lat="47.94626" lon="6.72524">
        <ele>720</ele>
        <time>2023-04-08T15:38:02+02:00</time>
      </trkpt>
      <trkpt lat="47.94628" lon="6.72521">
        <ele>720</ele>
        <time>2023-04-08T15:38:32+02:00</time>
      </trkpt>
      <trkpt lat="47.94622" lon="6.72463">
        <ele>724</ele>
        <time>2023-04-08T15:39:02+02:00</time>
      </trkpt>
      <trkpt lat="47.94635" lon="6.72356">
        <ele>720</ele>
        <time>2023-04-08T15:39:32+02:00</time>
      </trkpt>
      <trkpt lat="47.94734" lon="6.72266">
        <ele>702</ele>
        <time>2023-04-08T15:40:02+02:00</time>
      </trkpt>
      <trkpt lat="47.94807" lon="6.72302">
        <ele>705</ele>
        <time>2023-04-08T15:40:32+02:00</time>
      </trkpt>
      <trkpt lat="47.94834" lon="6.72288">
        <ele>712</ele>
        <time>2023-04-08T15:41:02+02:00</time>
      </trkpt>
      <trkpt lat="47.94836" lon="6.7227">
        <ele>715</ele>
        <time>2023-04-08T15:41:32+02:00</time>
      </trkpt>
      <trkpt lat="47.94832" lon="6.72199">
        <ele>720</ele>
        <time>2023-04-08T15:42:02+02:00</time>
      </trkpt>
      <trkpt lat="47.94813" lon="6.721">
        <ele>730</ele>
        <time>2023-04-08T15:42:32+02:00</time>
      </trkpt>
      <trkpt lat="47.94768" lon="6.72033">
        <ele>739</ele>
        <time>2023-04-08T15:43:02+02:00</time>
      </trkpt>
      <trkpt lat="47.9471" lon="6.72037">
        <ele>745</ele>
        <time>2023-04-08T15:43:32+02:00</time>
      </trkpt>
      <trkpt lat="47.94652" lon="6.72055">
        <ele>750</ele>
        <time>2023-04-08T15:44:02+02:00</time>
      </trkpt>
      <trkpt lat="47.94603" lon="6.72073">
        <ele>755</ele>
        <time>2023-04-08T15:44:32+02:00</time>
      </trkpt>
      <trkpt lat="47.94566" lon="6.72126">
        <ele>768</ele>
        <time>2023-04-08T15:45:02+02:00</time>
      </trkpt>
      <trkpt lat="47.94549" lon="6.72178">
        <ele>771</ele>
        <time>2023-04-08T15:45:32+02:00</time>
      </trkpt>
      <trkpt lat="47.94539" lon="6.72199">
        <ele>775</ele>
        <time>2023-04-08T15:46:02+02:00</time>
      </trkpt>
      <trkpt lat="47.94513" lon="6.72282">
        <ele>785</ele>
        <time>2023-04-08T15:46:32+02:00</time>
      </trkpt>
      <trkpt lat="47.94492" lon="6.72444">
        <ele>796</ele>
        <time>2023-04-08T15:47:02+02:00</time>
      </trkpt>
      <trkpt lat="47.94461" lon="6.72564">
        <ele>813</ele>
        <time>2023-04-08T15:47:32+02:00</time>
      </trkpt>
      <trkpt lat="47.94421" lon="6.72681">
        <ele>830</ele>
        <time>2023-04-08T15:48:02+02:00</time>
      </trkpt>
      <trkpt lat="47.94418" lon="6.72615">
        <ele>835</ele>
        <time>2023-04-08T15:48:32+02:00</time>
      </trkpt>
      <trkpt lat="47.94432" lon="6.72532">
        <ele>831</ele>
        <time>2023-04-08T15:49:02+02:00</time>
      </trkpt>
      <trkpt lat="47.94425" lon="6.72454">
        <ele>835</ele>
        <time>2023-04-08T15:49:32+02:00</time>
      </trkpt>
      <trkpt lat="47.94413" lon="6.72373">
        <ele>836</ele>
        <time>2023-04-08T15:50:02+02:00</time>
      </trkpt>
      <trkpt lat="47.94409" lon="6.72244">
        <ele>837</ele>
        <time>2023-04-08T15:50:32+02:00</time>
      </trkpt>
      <trkpt lat="47.9439" lon="6.72105">
        <ele>853</ele>
        <time>2023-04-08T15:51:02+02:00</time>
      </trkpt>
      <trkpt lat="47.94367" lon="6.71974">
        <ele>863</ele>
        <time>2023-04-08T15:51:32+02:00</time>
      </trkpt>
      <trkpt lat="47.9436" lon="6.71882">
        <ele>863</ele>
        <time>2023-04-08T15:55:02+02:00</time>
      </trkpt>
      <trkpt lat="47.94353" lon="6.71827">
        <ele>865</ele>
        <time>2023-04-08T15:56:02+02:00</time>
      </trkpt>
      <trkpt lat="47.94373" lon="6.71772">
        <ele>862</ele>
        <time>2023-04-08T15:56:32+02:00</time>
      </trkpt>
      <trkpt lat="47.94418" lon="6.71734">
        <ele>857</ele>
        <time>2023-04-08T15:57:02+02:00</time>
      </trkpt>
      <trkpt lat="47.94474" lon="6.71717">
        <ele>856</ele>
        <time>2023-04-08T15:57:32+02:00</time>
      </trkpt>
      <trkpt lat="47.94557" lon="6.717">
        <ele>861</ele>
        <time>2023-04-08T15:58:02+02:00</time>
      </trkpt>
      <trkpt lat="47.94603" lon="6.71639">
        <ele>864</ele>
        <time>2023-04-08T15:58:32+02:00</time>
      </trkpt>
      <trkpt lat="47.94696" lon="6.71641">
        <ele>857</ele>
        <time>2023-04-08T15:59:02+02:00</time>
      </trkpt>
      <trkpt lat="47.94789" lon="6.71661">
        <ele>859</ele>
        <time>2023-04-08T15:59:32+02:00</time>
      </trkpt>
      <trkpt lat="47.94848" lon="6.71688">
        <ele>860</ele>
        <time>2023-04-08T16:00:02+02:00</time>
      </trkpt>
      <trkpt lat="47.94881" lon="6.71736">
        <ele>854</ele>
        <time>2023-04-08T16:00:32+02:00</time>
      </trkpt>
      <trkpt lat="47.94933" lon="6.71792">
        <ele>855</ele>
        <time>2023-04-08T16:01:02+02:00</time>
      </trkpt>
      <trkpt lat="47.94964" lon="6.71843">
        <ele>856</ele>
        <time>2023-04-08T16:01:32+02:00</time>
      </trkpt>
      <trkpt lat="47.95006" lon="6.71877">
        <ele>856</ele>
        <time>2023-04-08T16:02:02+02:00</time>
      </trkpt>
      <trkpt lat="47.95053" lon="6.71974">
        <ele>847</ele>
        <time>2023-04-08T16:02:32+02:00</time>
      </trkpt>
      <trkpt lat="47.95101" lon="6.72073">
        <ele>830</ele>
        <time>2023-04-08T16:03:02+02:00</time>
      </trkpt>
      <trkpt lat="47.95177" lon="6.72127">
        <ele>806</ele>
        <time>2023-04-08T16:03:32+02:00</time>
      </trkpt>
      <trkpt lat="47.95298" lon="6.72302">
        <ele>789</ele>
        <time>2023-04-08T16:04:02+02:00</time>
      </trkpt>
      <trkpt lat="47.9536" lon="6.72414">
        <ele>769</ele>
        <time>2023-04-08T16:04:32+02:00</time>
      </trkpt>
      <trkpt lat="47.9551" lon="6.72484">
        <ele>736</ele>
        <time>2023-04-08T16:05:02+02:00</time>
      </trkpt>
      <trkpt lat="47.95531" lon="6.72513">
        <ele>731</ele>
        <time>2023-04-08T16:05:32+02:00</time>
      </trkpt>
      <trkpt lat="47.95532" lon="6.72513">
        <ele>731</ele>
        <time>2023-04-08T16:06:02+02:00</time>
      </trkpt>
      <trkpt lat="47.95531" lon="6.72513">
        <ele>731</ele>
        <time>2023-04-08T16:06:32+02:00</time>
      </trkpt>
      <trkpt lat="47.9559" lon="6.72558">
        <ele>719</ele>
        <time>2023-04-08T16:07:02+02:00</time>
      </trkpt>
      <trkpt lat="47.95683" lon="6.72566">
        <ele>688</ele>
        <time>2023-04-08T16:07:32+02:00</time>
      </trkpt>
      <trkpt lat="47.95774" lon="6.72629">
        <ele>660</ele>
        <time>2023-04-08T16:08:02+02:00</time>
      </trkpt>
      <trkpt lat="47.95869" lon="6.72712">
        <ele>633</ele>
        <time>2023-04-08T16:08:32+02:00</time>
      </trkpt>
      <trkpt lat="47.95957" lon="6.72806">
        <ele>617</ele>
        <time>2023-04-08T16:09:02+02:00</time>
      </trkpt>
      <trkpt lat="47.95945" lon="6.72898">
        <ele>595</ele>
        <time>2023-04-08T16:09:32+02:00</time>
      </trkpt>
      <trkpt lat="47.95945" lon="6.729">
        <ele>595</ele>
        <time>2023-04-08T16:10:02+02:00</time>
      </trkpt>
      <trkpt lat="47.95927" lon="6.72909">
        <ele>591</ele>
        <time>2023-04-08T16:10:32+02:00</time>
      </trkpt>
      <trkpt lat="47.95903" lon="6.72972">
        <ele>574</ele>
        <time>2023-04-08T16:11:02+02:00</time>
      </trkpt>
      <trkpt lat="47.95821" lon="6.73122">
        <ele>543</ele>
        <time>2023-04-08T16:11:32+02:00</time>
      </trkpt>
      <trkpt lat="47.95828" lon="6.73179">
        <ele>531</ele>
        <time>2023-04-08T16:12:02+02:00</time>
      </trkpt>
      <trkpt lat="47.95781" lon="6.73348">
        <ele>504</ele>
        <time>2023-04-08T16:12:32+02:00</time>
      </trkpt>
      <trkpt lat="47.95758" lon="6.7344">
        <ele>484</ele>
        <time>2023-04-08T16:13:02+02:00</time>
      </trkpt>
      <trkpt lat="47.9574" lon="6.73671">
        <ele>453</ele>
        <time>2023-04-08T16:13:32+02:00</time>
      </trkpt>
      <trkpt lat="47.95748" lon="6.73812">
        <ele>447</ele>
        <time>2023-04-08T16:14:02+02:00</time>
      </trkpt>
      <trkpt lat="47.95748" lon="6.73812">
        <ele>447</ele>
        <time>2023-04-08T16:14:32+02:00</time>
      </trkpt>
      <trkpt lat="47.95748" lon="6.73811">
        <ele>447</ele>
        <time>2023-04-08T16:15:02+02:00</time>
      </trkpt>
      <trkpt lat="47.95748" lon="6.73813">
        <ele>447</ele>
        <time>2023-04-08T16:15:32+02:00</time>
      </trkpt>
      <trkpt lat="47.95748" lon="6.73813">
        <ele>447</ele>
        <time>2023-04-08T16:16:02+02:00</time>
      </trkpt>
      <trkpt lat="47.95624" lon="6.73959">
        <ele>447</ele>
        <time>2023-04-08T16:17:02+02:00</time>
      </trkpt>
      <trkpt lat="47.95538" lon="6.74072">
        <ele>447</ele>
        <time>2023-04-08T16:17:32+02:00</time>
      </trkpt>
      <trkpt lat="47.95419" lon="6.7425">
        <ele>453</ele>
        <time>2023-04-08T16:18:02+02:00</time>
      </trkpt>
      <trkpt lat="47.9548" lon="6.74311">
        <ele>446</ele>
        <time>2023-04-08T16:18:32+02:00</time>
      </trkpt>
      <trkpt lat="47.95471" lon="6.74419">
        <ele>451</ele>
        <time>2023-04-08T16:19:02+02:00</time>
      </trkpt>
      <trkpt lat="47.95433" lon="6.74518">
        <ele>451</ele>
        <time>2023-04-08T16:19:32+02:00</time>
      </trkpt>
      <trkpt lat="47.9543" lon="6.74726">
        <ele>453</ele>
        <time>2023-04-08T16:20:02+02:00</time>
      </trkpt>
      <trkpt lat="47.95455" lon="6.7491">
        <ele>455</ele>
        <time>2023-04-08T16:20:32+02:00</time>
      </trkpt>
      <trkpt lat="47.95508" lon="6.75058">
        <ele>455</ele>
        <time>2023-04-08T16:21:02+02:00</time>
      </trkpt>
      <trkpt lat="47.95546" lon="6.75116">
        <ele>463</ele>
        <time>2023-04-08T16:21:32+02:00</time>
      </trkpt>
      <trkpt lat="47.95592" lon="6.75111">
        <ele>468</ele>
        <time>2023-04-08T16:22:02+02:00</time>
      </trkpt>
      <trkpt lat="47.95657" lon="6.75117">
        <ele>480</ele>
        <time>2023-04-08T16:22:32+02:00</time>
      </trkpt>
      <trkpt lat="47.95684" lon="6.7509">
        <ele>484</ele>
        <time>2023-04-08T16:23:02+02:00</time>
      </trkpt>
      <trkpt lat="47.95671" lon="6.75137">
        <ele>489</ele>
        <time>2023-04-08T16:23:32+02:00</time>
      </trkpt>
      <trkpt lat="47.9563" lon="6.75236">
        <ele>491</ele>
        <time>2023-04-08T16:24:02+02:00</time>
      </trkpt>
      <trkpt lat="47.9559" lon="6.75343">
        <ele>497</ele>
        <time>2023-04-08T16:24:32+02:00</time>
      </trkpt>
      <trkpt lat="47.95533" lon="6.75449">
        <ele>504</ele>
        <time>2023-04-08T16:25:02+02:00</time>
      </trkpt>
      <trkpt lat="47.95501" lon="6.75527">
        <ele>508</ele>
        <time>2023-04-08T16:25:32+02:00</time>
      </trkpt>
      <trkpt lat="47.95497" lon="6.75568">
        <ele>508</ele>
        <time>2023-04-08T16:26:02+02:00</time>
      </trkpt>
      <trkpt lat="47.95498" lon="6.75568">
        <ele>508</ele>
        <time>2023-04-08T16:26:32+02:00</time>
      </trkpt>
      <trkpt lat="47.955" lon="6.75567">
        <ele>508</ele>
        <time>2023-04-08T16:27:02+02:00</time>
      </trkpt>
      <trkpt lat="47.955" lon="6.75568">
        <ele>509</ele>
        <time>2023-04-08T16:27:32+02:00</time>
      </trkpt>
      <trkpt lat="47.955" lon="6.75567">
        <ele>508</ele>
        <time>2023-04-08T16:28:02+02:00</time>
      </trkpt>
      <trkpt lat="47.955" lon="6.75567">
        <ele>508</ele>
        <time>2023-04-08T16:28:32+02:00</time>
      </trkpt>
      <trkpt lat="47.95497" lon="6.75566">
        <ele>508</ele>
        <time>2023-04-08T16:29:02+02:00</time>
      </trkpt>
      <trkpt lat="47.95497" lon="6.75567">
        <ele>508</ele>
        <time>2023-04-08T16:29:32+02:00</time>
      </trkpt>
      <trkpt lat="47.95497" lon="6.75567">
        <ele>508</ele>
        <time>2023-04-08T16:30:02+02:00</time>
      </trkpt>
      <trkpt lat="47.95497" lon="6.75567">
        <ele>508</ele>
        <time>2023-04-08T16:30:32+02:00</time>
      </trkpt>
      <trkpt lat="47.95501" lon="6.7565">
        <ele>512</ele>
        <time>2023-04-08T16:31:02+02:00</time>
      </trkpt>
      <trkpt lat="47.95518" lon="6.75746">
        <ele>519</ele>
        <time>2023-04-08T16:31:32+02:00</time>
      </trkpt>
      <trkpt lat="47.95531" lon="6.75843">
        <ele>526</ele>
        <time>2023-04-08T16:32:02+02:00</time>
      </trkpt>
      <trkpt lat="47.95492" lon="6.76069">
        <ele>517</ele>
        <time>2023-04-08T16:32:32+02:00</time>
      </trkpt>
      <trkpt lat="47.95352" lon="6.76063">
        <ele>514</ele>
        <time>2023-04-08T16:33:02+02:00</time>
      </trkpt>
      <trkpt lat="47.95342" lon="6.7608">
        <ele>515</ele>
        <time>2023-04-08T16:33:32+02:00</time>
      </trkpt>
      <trkpt lat="47.95321" lon="6.76118">
        <ele>516</ele>
        <time>2023-04-08T16:34:02+02:00</time>
      </trkpt>
      <trkpt lat="47.95268" lon="6.76203">
        <ele>506</ele>
        <time>2023-04-08T16:34:32+02:00</time>
      </trkpt>
      <trkpt lat="47.95238" lon="6.76443">
        <ele>502</ele>
        <time>2023-04-08T16:35:02+02:00</time>
      </trkpt>
      <trkpt lat="47.95238" lon="6.76448">
        <ele>502</ele>
        <time>2023-04-08T16:35:32+02:00</time>
      </trkpt>
      <trkpt lat="47.9524" lon="6.7645">
        <ele>503</ele>
        <time>2023-04-08T16:36:02+02:00</time>
      </trkpt>
      <trkpt lat="47.95241" lon="6.7645">
        <ele>503</ele>
        <time>2023-04-08T16:36:32+02:00</time>
      </trkpt>
      <trkpt lat="47.95242" lon="6.7645">
        <ele>504</ele>
        <time>2023-04-08T16:37:02+02:00</time>
      </trkpt>
      <trkpt lat="47.9524" lon="6.76448">
        <ele>503</ele>
        <time>2023-04-08T16:37:32+02:00</time>
      </trkpt>
      <trkpt lat="47.9524" lon="6.76446">
        <ele>503</ele>
        <time>2023-04-08T16:38:02+02:00</time>
      </trkpt>
      <trkpt lat="47.95242" lon="6.76446">
        <ele>504</ele>
        <time>2023-04-08T16:38:32+02:00</time>
      </trkpt>
      <trkpt lat="47.95242" lon="6.76446">
        <ele>504</ele>
        <time>2023-04-08T16:39:02+02:00</time>
      </trkpt>
      <trkpt lat="47.9524" lon="6.76446">
        <ele>503</ele>
        <time>2023-04-08T16:39:32+02:00</time>
      </trkpt>
      <trkpt lat="47.95239" lon="6.76447">
        <ele>503</ele>
        <time>2023-04-08T16:40:02+02:00</time>
      </trkpt>
      <trkpt lat="47.95238" lon="6.76447">
        <ele>502</ele>
        <time>2023-04-08T16:40:32+02:00</time>
      </trkpt>
      <trkpt lat="47.9524" lon="6.76445">
        <ele>503</ele>
        <time>2023-04-08T16:41:02+02:00</time>
      </trkpt>
      <trkpt lat="47.9521" lon="6.76588">
        <ele>491</ele>
        <time>2023-04-08T16:41:32+02:00</time>
      </trkpt>
      <trkpt lat="47.95031" lon="6.768">
        <ele>472</ele>
        <time>2023-04-08T16:42:02+02:00</time>
      </trkpt>
      <trkpt lat="47.9489" lon="6.76933">
        <ele>463</ele>
        <time>2023-04-08T16:42:32+02:00</time>
      </trkpt>
      <trkpt lat="47.94906" lon="6.77112">
        <ele>463</ele>
        <time>2023-04-08T16:43:02+02:00</time>
      </trkpt>
      <trkpt lat="47.94917" lon="6.77256">
        <ele>462</ele>
        <time>2023-04-08T16:43:32+02:00</time>
      </trkpt>
      <trkpt lat="47.94957" lon="6.77467">
        <ele>464</ele>
        <time>2023-04-08T16:44:02+02:00</time>
      </trkpt>
      <trkpt lat="47.94983" lon="6.77621">
        <ele>465</ele>
        <time>2023-04-08T16:44:32+02:00</time>
      </trkpt>
      <trkpt lat="47.94996" lon="6.7768">
        <ele>465</ele>
        <time>2023-04-08T16:45:02+02:00</time>
      </trkpt>
      <trkpt lat="47.95015" lon="6.77779">
        <ele>467</ele>
        <time>2023-04-08T16:45:32+02:00</time>
      </trkpt>
      <trkpt lat="47.95046" lon="6.77767">
        <ele>467</ele>
        <time>2023-04-08T16:46:02+02:00</time>
      </trkpt>
    </trkseg>
  </trk>
</gpx>